LFBHLFBZ

Guest
Details From LFBH - La Rochelle Laleu
To LFBZ - Biarritz Bayonne Anglet
Flight Number -
Tags Generated
Created
Modified
Stats Distance 163 nm / 303 km
Max Altitude 0 ft / 0 m
Waypoints 2
Social Downloads 2
Likes 0
Share VATSIM

Download

Looking for another format? Having issues loading an existing format? Contact us
Advertisement - Login to hide

Notes

Generated

Route

LFBH LFBZ

ID Type Via Altitude Latitude Longitude Leg Dist Tot Dist Heading (true) Name
O LFBH APT - 0 ft / 0 m 46.17968˚ -1.21101˚ - 0 nm - -
O LFBZ APT - 0 ft / 0 m 43.46824˚ -1.53723˚ 163 nm 163 nm 185° / 185° -

Altitude Profile

Advertisement - Login to hide

Weather


0- 5 10 15 20 25 30 35+ Temperature / ° C

Clouds and Precipitation
Forecast for 2017-12-17 12:00 UTC. Updated 44 minutes ago

Ground ~20,000 ft ~40,000 ft Winds

LFBH

Details ICAO LFBH (LRH)
Name La Rochelle Laleu
Region France
Timezone Europe/Paris (UTC+1.0)
Stats Elevation 74 ft / 23 m (AMSL)
Location 46.179245° -1.196410°
Runways 1
Magnetic Variation 0.301° W

METAR

LFBH 171200Z AUTO 32007KT CAVOK 10/07 Q1029 NOSIG

Decode

TAF

TAF LFBH 171100Z 1712/1812 33005KT 9999 BKN040 BECMG 1719/1721 25008KT TEMPO 1802/1808 2000 RADZ OVC005 BECMG 1808/1810 32012KT SCT006 BKN025

Decode

Departure Runways

ID Width Length Bearing (true) Bearing (mag) Surface Threshold Offset Overrun Length
10 148 ft / 45 m 7,383 ft / 2,250 m 92.43° 92.73° Asphalt 1,033 ft / 315 m 0 ft / 0 m
28 148 ft / 45 m 7,383 ft / 2,250 m 272.45° 272.75° Asphalt 1,532 ft / 467 m 0 ft / 0 m

LFBZ

Details ICAO LFBZ (BIQ)
Name Biarritz-Anglet-Bayonne
Region France
Timezone Europe/Paris (UTC+1.0)
Stats Elevation 245 ft / 75 m (AMSL)
Location 43.468427° -1.523322°
Runways 1
Magnetic Variation 0.225° W

METAR

LFBZ 171200Z AUTO 21003KT 140V260 9999 SCT039 BKN048 BKN056 11/06 Q1031 NOSIG

Decode

TAF

TAF LFBZ 171100Z 1712/1812 21005KT 9999 FEW040 OVC100 BECMG 1712/1714 31012KT TEMPO 1718/1722 4000 SHRA BKN020TCU TEMPO 1801/1812 21015G25KT 4000 SHRA BKN014

Decode

Destination Runways

ID Width Length Bearing (true) Bearing (mag) Surface Threshold Offset Overrun Length
09 148 ft / 45 m 7,388 ft / 2,252 m 89.12° 89.34° Asphalt 673 ft / 205 m 0 ft / 0 m
27 148 ft / 45 m 7,388 ft / 2,252 m 269.14° 269.36° Asphalt 0 ft / 0 m 0 ft / 0 m

Approach Navaids

Runway Type Ident Frequency Range Bearing (true) Bearing (mag) Slope Elevation
09 Localiser BZ 111.34 MHz 18 nm / 33 km 89.35° 89.58° - 243 ft / 74 m (AMSL)
09 Glidescope BZ 111.34 MHz 10 nm / 19 km 89.13° 89.36° 3.00° 243 ft / 74 m (AMSL)
27 Localiser BZ 111.35 MHz 18 nm / 33 km 269.04° 269.27° - 234 ft / 71 m (AMSL)
27 Glidescope BZ 111.35 MHz 10 nm / 19 km 269.13° 269.36° 3.00° 234 ft / 71 m (AMSL)
27 DME BZ 111.35 MHz 18 nm / 33 km - - - 223 ft / 68 m (AMSL)

Popular Alternatives